createdAt,value
2022-12-29T00:01:43.057Z,100.00
2022-12-29T00:04:15.235Z,100.00
2022-12-29T00:06:43.062Z,100.00
2022-12-29T00:09:12.485Z,100.00
2022-12-29T00:11:39.475Z,100.00
2022-12-29T00:14:26.277Z,100.00
2022-12-29T00:16:53.645Z,100.00
2022-12-29T00:19:39.611Z,100.00
2022-12-29T00:22:25.319Z,100.00
2022-12-29T00:25:01.284Z,100.00
2022-12-29T00:27:49.977Z,100.00
2022-12-29T00:30:40.957Z,100.00
2022-12-29T00:33:33.557Z,100.00
2022-12-29T00:36:00.407Z,100.00
2022-12-29T00:38:46.092Z,100.00
2022-12-29T00:41:31.546Z,100.00
2022-12-29T00:44:07.453Z,100.00
2022-12-29T00:46:35.293Z,100.00
2022-12-29T00:49:22.268Z,100.00
2022-12-29T00:51:49.601Z,100.00
2022-12-29T00:54:17.039Z,100.00
2022-12-29T00:56:50.179Z,100.00
2022-12-29T00:59:17.688Z,100.00
2022-12-29T01:01:45.928Z,100.00
2022-12-29T01:04:13.156Z,100.00
2022-12-29T01:06:41.181Z,100.00
2022-12-29T01:09:27.294Z,100.00
2022-12-29T01:11:54.546Z,100.00
2022-12-29T01:14:22.056Z,100.00
2022-12-29T01:16:48.859Z,100.00
2022-12-29T01:19:16.875Z,100.00
2022-12-29T01:21:45.581Z,100.00
2022-12-29T01:24:12.581Z,100.00
2022-12-29T01:26:39.548Z,100.00
2022-12-29T01:29:06.456Z,100.00
2022-12-29T01:31:34.219Z,100.00
2022-12-29T01:34:01.071Z,100.00
2022-12-29T01:36:28.067Z,100.00
2022-12-29T01:38:54.995Z,100.00
2022-12-29T01:41:22.338Z,100.00
2022-12-29T01:43:54.628Z,100.00
2022-12-29T01:46:33.129Z,100.00
2022-12-29T01:49:08.668Z,100.00
2022-12-29T01:51:43.296Z,100.00
2022-12-29T01:54:19.431Z,100.00
2022-12-29T01:56:47.145Z,100.00
2022-12-29T01:59:17.059Z,100.00
2022-12-29T02:01:45.898Z,100.00
2022-12-29T02:04:14.121Z,100.00
2022-12-29T02:06:56.000Z,100.00
2022-12-29T02:09:24.459Z,100.00
2022-12-29T02:11:51.537Z,100.00
2022-12-29T02:14:19.115Z,100.00
2022-12-29T02:17:07.956Z,100.00
2022-12-29T02:20:08.261Z,100.00
2022-12-29T02:22:53.974Z,100.00
2022-12-29T02:25:59.407Z,100.00
2022-12-29T02:29:04.146Z,100.00
2022-12-29T02:31:47.392Z,100.00
2022-12-29T02:34:25.261Z,100.00
2022-12-29T02:37:13.963Z,100.00
2022-12-29T02:39:53.609Z,100.00
2022-12-29T02:42:32.206Z,100.00
2022-12-29T02:45:33.228Z,100.00
2022-12-29T02:48:10.271Z,100.00
2022-12-29T02:51:00.119Z,100.00
2022-12-29T02:53:46.177Z,100.00
2022-12-29T02:56:13.047Z,100.00
2022-12-29T02:58:39.920Z,100.00
2022-12-29T03:01:32.965Z,100.00
2022-12-29T03:04:14.989Z,100.00
2022-12-29T03:06:53.107Z,100.00
2022-12-29T03:09:48.056Z,100.00
2022-12-29T03:13:04.889Z,100.00
2022-12-29T03:16:05.926Z,100.00
2022-12-29T03:18:40.742Z,100.00
2022-12-29T03:21:15.748Z,100.00
2022-12-29T03:23:44.077Z,100.00
2022-12-29T03:26:13.997Z,100.00
2022-12-29T03:28:46.207Z,100.00
2022-12-29T03:31:14.348Z,100.00
2022-12-29T03:33:42.911Z,100.00
2022-12-29T03:36:13.582Z,100.00
2022-12-29T03:38:47.906Z,100.00
2022-12-29T03:41:18.733Z,100.00
2022-12-29T03:43:46.405Z,100.00
2022-12-29T03:46:13.236Z,100.00
2022-12-29T03:48:40.149Z,100.00
2022-12-29T03:51:07.666Z,100.00
2022-12-29T03:53:34.540Z,100.00
2022-12-29T03:56:01.490Z,100.00
2022-12-29T03:58:28.419Z,100.00
2022-12-29T04:00:55.370Z,100.00
2022-12-29T04:03:22.249Z,100.00
2022-12-29T04:05:49.179Z,100.00
2022-12-29T04:08:16.063Z,100.00
2022-12-29T04:10:43.071Z,100.00
2022-12-29T04:13:09.991Z,100.00
2022-12-29T04:15:37.530Z,100.00
2022-12-29T04:18:04.432Z,100.00
2022-12-29T04:20:50.118Z,100.00
2022-12-29T04:23:17.028Z,100.00
2022-12-29T04:25:48.692Z,100.00
2022-12-29T04:28:16.359Z,100.00
2022-12-29T04:30:46.379Z,100.00
2022-12-29T04:33:13.581Z,100.00
2022-12-29T04:35:41.142Z,100.00
2022-12-29T04:38:08.083Z,100.00
2022-12-29T04:40:35.038Z,100.00
2022-12-29T04:43:01.935Z,100.00
2022-12-29T04:45:28.807Z,100.00
2022-12-29T04:47:56.204Z,100.00
2022-12-29T04:50:23.102Z,100.00
2022-12-29T04:52:49.983Z,100.00
2022-12-29T04:55:16.939Z,100.00
2022-12-29T04:57:45.691Z,100.00
2022-12-29T05:00:13.527Z,100.00
2022-12-29T05:02:40.925Z,100.00
2022-12-29T05:05:08.215Z,100.00
2022-12-29T05:07:35.204Z,100.00
2022-12-29T05:10:02.090Z,100.00
2022-12-29T05:12:32.956Z,100.00
2022-12-29T05:14:59.994Z,100.00
2022-12-29T05:17:27.302Z,100.00
2022-12-29T05:19:54.161Z,100.00
2022-12-29T05:22:21.410Z,100.00
2022-12-29T05:24:48.237Z,100.00
2022-12-29T05:27:15.321Z,100.00
2022-12-29T05:29:42.197Z,100.00
2022-12-29T05:32:09.093Z,100.00
2022-12-29T05:34:35.939Z,100.00
2022-12-29T05:37:03.620Z,100.00
2022-12-29T05:39:30.585Z,100.00
2022-12-29T05:41:57.488Z,100.00
2022-12-29T05:44:24.498Z,100.00
2022-12-29T05:46:53.764Z,100.00
2022-12-29T05:49:20.920Z,100.00
2022-12-29T05:51:47.810Z,100.00
2022-12-29T05:54:14.729Z,100.00
2022-12-29T05:56:41.981Z,100.00
2022-12-29T05:59:09.878Z,100.00
2022-12-29T06:01:36.796Z,100.00
2022-12-29T06:04:04.015Z,100.00
2022-12-29T06:06:31.084Z,100.00
2022-12-29T06:08:58.104Z,100.00
2022-12-29T06:11:24.963Z,100.00
2022-12-29T06:13:51.857Z,100.00
2022-12-29T06:16:18.951Z,100.00
2022-12-29T06:18:46.412Z,100.00
2022-12-29T06:21:13.824Z,100.00
2022-12-29T06:23:41.164Z,100.00
2022-12-29T06:26:08.051Z,100.00
2022-12-29T06:28:35.226Z,100.00
2022-12-29T06:31:03.978Z,100.00
2022-12-29T06:33:31.295Z,100.00
2022-12-29T06:35:58.578Z,100.00
2022-12-29T06:38:25.694Z,100.00
2022-12-29T06:40:52.670Z,100.00
2022-12-29T06:43:19.599Z,100.00
2022-12-29T06:45:47.497Z,100.00
2022-12-29T06:48:14.564Z,100.00
2022-12-29T06:50:41.601Z,100.00
2022-12-29T06:53:08.499Z,100.00
2022-12-29T06:55:35.345Z,100.00
2022-12-29T06:58:02.583Z,100.00
2022-12-29T07:00:29.467Z,100.00
2022-12-29T07:02:59.007Z,100.00
2022-12-29T07:05:28.696Z,100.00
2022-12-29T07:07:56.293Z,100.00
2022-12-29T07:10:23.855Z,100.00
2022-12-29T07:12:51.086Z,100.00
2022-12-29T07:15:18.151Z,100.00
2022-12-29T07:17:45.169Z,100.00
2022-12-29T07:20:12.167Z,100.00
2022-12-29T07:22:39.718Z,100.00
2022-12-29T07:25:06.884Z,100.00
2022-12-29T07:27:35.021Z,100.00
2022-12-29T07:30:01.978Z,100.00
2022-12-29T07:32:29.660Z,100.00
2022-12-29T07:34:59.531Z,100.00
2022-12-29T07:37:26.517Z,100.00
2022-12-29T07:39:53.497Z,100.00
2022-12-29T07:42:20.459Z,100.00
2022-12-29T07:44:50.765Z,100.00
2022-12-29T07:47:18.294Z,100.00
2022-12-29T07:49:45.439Z,100.00
2022-12-29T07:52:12.950Z,100.00
2022-12-29T07:54:40.115Z,100.00
2022-12-29T07:57:07.171Z,100.00
2022-12-29T07:59:34.167Z,100.00
2022-12-29T08:02:01.130Z,100.00
2022-12-29T08:04:28.200Z,100.00
2022-12-29T08:06:55.100Z,100.00
2022-12-29T08:09:24.268Z,100.00
2022-12-29T08:11:58.996Z,100.00
2022-12-29T08:14:25.839Z,100.00
2022-12-29T08:16:52.801Z,100.00
2022-12-29T08:19:19.736Z,100.00
2022-12-29T08:21:46.637Z,100.00
2022-12-29T08:24:13.585Z,100.00
2022-12-29T08:26:40.562Z,100.00
2022-12-29T08:29:07.491Z,99.36
2022-12-29T08:31:34.561Z,98.90
2022-12-29T08:34:02.520Z,97.92
2022-12-29T08:36:29.354Z,96.97
2022-12-29T08:38:58.258Z,96.99
2022-12-29T08:41:25.227Z,96.92
2022-12-29T08:43:52.084Z,97.03
2022-12-29T08:46:19.027Z,96.75
2022-12-29T08:48:46.023Z,96.42
2022-12-29T08:51:14.318Z,96.30
2022-12-29T08:53:41.254Z,96.17
2022-12-29T08:56:09.735Z,96.46
2022-12-29T08:58:36.882Z,96.34
2022-12-29T09:01:04.574Z,95.93
2022-12-29T09:04:04.214Z,96.63
2022-12-29T09:06:19.569Z,96.11
2022-12-29T09:08:46.581Z,95.96
2022-12-29T09:11:18.239Z,95.75
2022-12-29T09:13:45.494Z,95.22
2022-12-29T09:16:12.611Z,94.12
2022-12-29T09:18:39.723Z,94.34
2022-12-29T09:21:07.778Z,93.60
2022-12-29T09:23:35.727Z,93.55
2022-12-29T09:26:03.520Z,92.90
2022-12-29T09:28:30.923Z,92.77
2022-12-29T09:30:58.795Z,92.43
2022-12-29T09:33:25.959Z,91.66
2022-12-29T09:35:56.321Z,91.20
2022-12-29T09:38:24.653Z,91.75
2022-12-29T09:40:57.493Z,91.19
2022-12-29T09:43:42.586Z,91.21
2022-12-29T09:46:28.572Z,91.17
2022-12-29T09:49:20.723Z,91.26
2022-12-29T09:51:52.130Z,90.55
2022-12-29T09:54:37.555Z,90.36
2022-12-29T09:57:04.407Z,89.65
2022-12-29T09:59:41.096Z,89.64
2022-12-29T10:02:25.448Z,89.64
2022-12-29T10:04:52.370Z,90.02
2022-12-29T10:07:54.642Z,89.66
2022-12-29T10:10:35.590Z,89.43
2022-12-29T10:13:08.597Z,89.08
2022-12-29T10:16:07.853Z,88.43
2022-12-29T10:18:50.357Z,87.75
2022-12-29T10:21:46.017Z,88.23
2022-12-29T10:24:13.920Z,87.32
2022-12-29T10:26:45.607Z,86.63
2022-12-29T10:29:27.606Z,86.56
2022-12-29T10:32:03.355Z,86.13
2022-12-29T10:34:38.994Z,86.05
2022-12-29T10:37:31.944Z,85.79
2022-12-29T10:40:02.186Z,85.46
2022-12-29T10:42:38.378Z,85.22
2022-12-29T10:45:06.500Z,84.79
2022-12-29T10:47:40.512Z,84.71
2022-12-29T10:50:08.547Z,84.15
2022-12-29T10:52:36.092Z,84.14
2022-12-29T10:55:13.983Z,84.17
2022-12-29T10:57:45.171Z,83.81
2022-12-29T11:00:18.104Z,83.77
2022-12-29T11:03:17.397Z,83.65
2022-12-29T11:06:13.295Z,83.88
2022-12-29T11:08:46.410Z,84.15
2022-12-29T11:11:13.500Z,84.48
2022-12-29T11:13:52.076Z,84.37
2022-12-29T11:16:31.700Z,83.94
2022-12-29T11:18:59.763Z,84.62
2022-12-29T11:21:41.406Z,84.73
2022-12-29T11:24:21.808Z,85.16
2022-12-29T11:26:51.874Z,85.25
2022-12-29T11:29:25.329Z,85.41
2022-12-29T11:31:59.118Z,85.57
2022-12-29T11:34:33.922Z,85.64
2022-12-29T11:37:07.369Z,85.85
2022-12-29T11:39:34.314Z,85.83
2022-12-29T11:42:03.634Z,85.91
2022-12-29T11:44:37.740Z,86.57
2022-12-29T11:47:05.231Z,86.63
2022-12-29T11:49:32.275Z,86.59
2022-12-29T11:51:59.323Z,87.01
2022-12-29T11:54:30.763Z,86.76
2022-12-29T11:56:59.413Z,86.94
2022-12-29T11:59:35.337Z,87.02
2022-12-29T12:02:25.905Z,87.03
2022-12-29T12:05:02.041Z,87.38
2022-12-29T12:08:06.867Z,87.63
2022-12-29T12:10:48.071Z,87.75
2022-12-29T12:13:26.724Z,87.82
2022-12-29T12:15:58.304Z,87.86
2022-12-29T12:18:48.275Z,87.78
2022-12-29T12:21:32.062Z,87.88
2022-12-29T12:24:10.021Z,88.22
2022-12-29T12:26:43.827Z,88.00
2022-12-29T12:29:33.611Z,87.70
2022-12-29T12:32:13.171Z,87.68
2022-12-29T12:34:43.984Z,87.72
2022-12-29T12:37:25.617Z,87.60
2022-12-29T12:40:16.991Z,87.72
2022-12-29T12:42:59.077Z,87.83
2022-12-29T12:45:53.724Z,88.53
2022-12-29T12:48:44.021Z,88.43
2022-12-29T12:51:26.943Z,89.14
2022-12-29T12:54:14.591Z,88.96
2022-12-29T12:57:09.241Z,88.71
2022-12-29T12:59:36.100Z,88.63
2022-12-29T13:02:31.575Z,88.59
2022-12-29T13:05:27.067Z,88.91
2022-12-29T13:08:15.989Z,88.72
2022-12-29T13:10:53.568Z,88.51
2022-12-29T13:14:03.906Z,88.80
2022-12-29T13:16:59.708Z,89.65
2022-12-29T13:20:03.060Z,89.84
2022-12-29T13:22:57.983Z,89.65
2022-12-29T13:25:30.902Z,89.21
2022-12-29T13:28:11.714Z,89.47
2022-12-29T13:30:44.761Z,89.56
2022-12-29T13:33:21.656Z,89.93
2022-12-29T13:35:53.509Z,90.03
2022-12-29T13:38:39.380Z,90.00
2022-12-29T13:41:15.534Z,90.41
2022-12-29T13:43:44.727Z,90.60
2022-12-29T13:46:32.614Z,90.53
2022-12-29T13:49:30.713Z,90.40
2022-12-29T13:52:00.344Z,90.53
2022-12-29T13:54:46.877Z,90.70
2022-12-29T13:57:25.792Z,90.78
2022-12-29T13:59:57.353Z,90.87
2022-12-29T14:02:45.807Z,91.13
2022-12-29T14:05:21.662Z,91.61
2022-12-29T14:07:50.252Z,92.16
2022-12-29T14:10:47.743Z,92.08
2022-12-29T14:13:19.874Z,92.47
2022-12-29T14:16:00.898Z,92.89
2022-12-29T14:18:29.921Z,93.15
2022-12-29T14:21:23.668Z,93.33
2022-12-29T14:23:52.447Z,93.88
2022-12-29T14:26:36.460Z,94.16
2022-12-29T14:29:24.925Z,94.36
2022-12-29T14:31:52.632Z,95.08
2022-12-29T14:34:22.293Z,95.04
2022-12-29T14:37:02.797Z,95.42
2022-12-29T14:39:37.376Z,95.80
2022-12-29T14:42:10.309Z,96.22
2022-12-29T14:44:55.166Z,96.26
2022-12-29T14:47:31.285Z,96.64
2022-12-29T14:50:09.004Z,96.83
2022-12-29T14:53:01.979Z,97.10
2022-12-29T14:55:44.647Z,97.37
2022-12-29T14:58:26.881Z,97.51
2022-12-29T15:00:54.033Z,97.80
2022-12-29T15:03:20.828Z,98.03
2022-12-29T15:05:53.729Z,98.13
2022-12-29T15:08:28.210Z,98.33
2022-12-29T15:10:59.552Z,98.54
2022-12-29T15:13:36.205Z,98.82
2022-12-29T15:16:03.274Z,99.33
2022-12-29T15:18:32.431Z,99.51
2022-12-29T15:21:01.950Z,99.46
2022-12-29T15:23:30.713Z,99.57
2022-12-29T15:26:03.831Z,99.71
2022-12-29T15:28:43.227Z,99.81
2022-12-29T15:31:30.633Z,100.00
2022-12-29T15:34:11.699Z,100.00
2022-12-29T15:36:40.579Z,100.00
2022-12-29T15:39:29.671Z,100.00
2022-12-29T15:42:41.101Z,100.00
2022-12-29T15:45:12.321Z,100.00
2022-12-29T15:47:39.974Z,100.00
2022-12-29T15:50:15.590Z,100.00
2022-12-29T15:52:42.612Z,100.00
2022-12-29T15:55:26.143Z,100.00
2022-12-29T15:57:57.860Z,100.00
2022-12-29T16:00:38.208Z,100.00
2022-12-29T16:03:06.766Z,100.00
2022-12-29T16:05:39.403Z,100.00
2022-12-29T16:08:38.061Z,100.00
2022-12-29T16:11:25.263Z,100.00
2022-12-29T16:13:53.824Z,100.00
2022-12-29T16:16:32.456Z,100.00
2022-12-29T16:19:00.296Z,100.00
2022-12-29T16:21:34.308Z,100.00
2022-12-29T16:24:06.907Z,100.00
2022-12-29T16:26:34.022Z,100.00
2022-12-29T16:29:02.465Z,100.00
2022-12-29T16:31:37.960Z,100.00
2022-12-29T16:34:33.142Z,100.00
2022-12-29T16:37:06.643Z,100.00
2022-12-29T16:39:40.349Z,100.00
2022-12-29T16:42:39.321Z,100.00
2022-12-29T16:45:21.576Z,100.00
2022-12-29T16:48:10.184Z,100.00
2022-12-29T16:50:39.175Z,100.00
2022-12-29T16:53:06.626Z,100.00
2022-12-29T16:55:33.580Z,100.00
2022-12-29T16:58:00.829Z,100.00
2022-12-29T17:00:32.944Z,100.00
2022-12-29T17:03:00.917Z,100.00
2022-12-29T17:05:27.823Z,100.00
2022-12-29T17:07:55.872Z,100.00
2022-12-29T17:10:43.110Z,100.00
2022-12-29T17:13:09.966Z,100.00
2022-12-29T17:15:36.996Z,100.00
2022-12-29T17:18:06.405Z,100.00
2022-12-29T17:20:36.951Z,100.00
2022-12-29T17:23:17.418Z,100.00
2022-12-29T17:25:46.670Z,100.00
2022-12-29T17:28:23.225Z,100.00
2022-12-29T17:30:50.271Z,100.00
2022-12-29T17:33:18.634Z,100.00
2022-12-29T17:35:48.341Z,100.00
2022-12-29T17:38:24.425Z,100.00
2022-12-29T17:40:51.628Z,100.00
2022-12-29T17:43:18.778Z,100.00
2022-12-29T17:45:49.681Z,100.00
2022-12-29T17:48:18.145Z,100.00
2022-12-29T17:50:46.713Z,100.00
2022-12-29T17:53:20.620Z,100.00
2022-12-29T17:55:47.687Z,100.00
2022-12-29T17:58:19.580Z,100.00
2022-12-29T18:00:48.382Z,100.00
2022-12-29T18:03:35.498Z,100.00
2022-12-29T18:06:05.925Z,100.00
2022-12-29T18:08:34.614Z,100.00
2022-12-29T18:11:02.404Z,100.00
2022-12-29T18:13:41.914Z,100.00
2022-12-29T18:16:13.023Z,100.00
2022-12-29T18:18:40.068Z,100.00
2022-12-29T18:21:07.726Z,100.00
2022-12-29T18:23:37.658Z,100.00
2022-12-29T18:26:05.191Z,100.00
2022-12-29T18:28:32.203Z,100.00
2022-12-29T18:31:01.145Z,100.00
2022-12-29T18:33:28.987Z,100.00
2022-12-29T18:35:58.760Z,100.00
2022-12-29T18:38:25.940Z,100.00
2022-12-29T18:40:53.493Z,100.00
2022-12-29T18:43:20.674Z,100.00
2022-12-29T18:45:47.606Z,100.00
2022-12-29T18:48:15.616Z,100.00
2022-12-29T18:50:42.889Z,100.00
2022-12-29T18:53:16.219Z,100.00
2022-12-29T18:55:43.057Z,100.00
2022-12-29T18:58:10.195Z,100.00
2022-12-29T19:00:37.254Z,100.00
2022-12-29T19:03:04.326Z,100.00
2022-12-29T19:05:36.996Z,100.00
2022-12-29T19:08:04.525Z,100.00
2022-12-29T19:10:32.000Z,100.00
2022-12-29T19:12:58.914Z,100.00
2022-12-29T19:15:35.363Z,100.00
2022-12-29T19:20:52.929Z,100.00
2022-12-29T19:23:23.306Z,100.00
2022-12-29T19:25:51.407Z,100.00
2022-12-29T19:28:23.884Z,100.00
2022-12-29T19:30:52.713Z,100.00
2022-12-29T19:33:21.415Z,100.00
2022-12-29T19:35:49.110Z,100.00
2022-12-29T19:38:16.006Z,100.00
2022-12-29T19:40:45.635Z,100.00
2022-12-29T19:43:13.900Z,100.00
2022-12-29T19:45:42.442Z,100.00
2022-12-29T19:48:14.855Z,100.00
2022-12-29T19:50:43.640Z,100.00
2022-12-29T19:53:11.738Z,100.00
2022-12-29T19:55:45.255Z,100.00
2022-12-29T19:58:12.685Z,100.00
2022-12-29T20:00:43.590Z,100.00
2022-12-29T20:03:10.940Z,100.00
2022-12-29T20:05:39.477Z,100.00
2022-12-29T20:08:06.654Z,100.00
2022-12-29T20:10:33.800Z,100.00
2022-12-29T20:13:00.632Z,100.00
2022-12-29T20:15:27.662Z,100.00
2022-12-29T20:20:42.185Z,100.00
2022-12-29T20:23:09.295Z,100.00
2022-12-29T20:25:46.394Z,100.00
2022-12-29T20:28:15.534Z,100.00
2022-12-29T20:30:43.292Z,100.00
2022-12-29T20:33:10.232Z,100.00
2022-12-29T20:35:37.554Z,100.00
2022-12-29T20:38:05.492Z,100.00
2022-12-29T20:40:32.587Z,100.00
2022-12-29T20:42:59.853Z,100.00
2022-12-29T20:45:28.354Z,100.00
2022-12-29T20:47:55.693Z,100.00
2022-12-29T20:50:22.618Z,100.00
2022-12-29T20:52:50.008Z,100.00
2022-12-29T20:55:16.925Z,100.00
2022-12-29T20:58:21.945Z,100.00
2022-12-29T21:00:31.695Z,100.00
2022-12-29T21:02:59.934Z,100.00
2022-12-29T21:05:27.977Z,100.00
2022-12-29T21:07:55.819Z,100.00
2022-12-29T21:10:22.953Z,100.00
2022-12-29T21:12:50.320Z,100.00
2022-12-29T21:15:17.690Z,100.00
2022-12-29T21:17:44.960Z,100.00
2022-12-29T21:20:30.223Z,100.00
2022-12-29T21:23:01.447Z,100.00
2022-12-29T21:25:38.778Z,100.00
2022-12-29T21:28:07.011Z,100.00
2022-12-29T21:30:35.208Z,100.00
2022-12-29T21:33:02.225Z,100.00
2022-12-29T21:35:29.037Z,100.00
2022-12-29T21:37:56.262Z,100.00
2022-12-29T21:40:23.108Z,100.00
2022-12-29T21:42:50.008Z,100.00
2022-12-29T21:45:26.069Z,100.00
2022-12-29T21:48:12.754Z,100.00
2022-12-29T21:51:03.237Z,100.00
2022-12-29T21:53:38.278Z,100.00
2022-12-29T21:56:10.816Z,100.00
2022-12-29T21:58:58.657Z,100.00
2022-12-29T22:01:45.333Z,100.00
2022-12-29T22:04:33.103Z,100.00
2022-12-29T22:07:18.516Z,100.00
2022-12-29T22:10:04.014Z,100.00
2022-12-29T22:12:50.769Z,100.00
2022-12-29T22:15:17.633Z,100.00
2022-12-29T22:17:50.057Z,100.00
2022-12-29T22:20:21.608Z,100.00
2022-12-29T22:22:48.593Z,100.00
2022-12-29T22:25:15.501Z,100.00
2022-12-29T22:27:42.978Z,100.00
2022-12-29T22:30:10.633Z,100.00
2022-12-29T22:32:37.552Z,100.00
2022-12-29T22:35:08.027Z,100.00
2022-12-29T22:37:36.833Z,100.00
2022-12-29T22:40:05.377Z,100.00
2022-12-29T22:42:32.508Z,100.00
2022-12-29T22:44:59.352Z,100.00
2022-12-29T22:47:26.150Z,100.00
2022-12-29T22:49:53.066Z,100.00
2022-12-29T22:52:20.075Z,100.00
2022-12-29T22:54:46.892Z,100.00
2022-12-29T22:57:13.793Z,100.00
2022-12-29T22:59:40.684Z,100.00
2022-12-29T23:02:07.734Z,100.00
2022-12-29T23:05:02.538Z,100.00
2022-12-29T23:07:21.783Z,100.00
2022-12-29T23:09:48.808Z,100.00
2022-12-29T23:12:15.683Z,100.00
2022-12-29T23:14:42.596Z,100.00
2022-12-29T23:17:09.650Z,100.00
2022-12-29T23:19:36.785Z,100.00
2022-12-29T23:22:09.093Z,100.00
2022-12-29T23:24:38.667Z,100.00
2022-12-29T23:27:05.466Z,100.00
2022-12-29T23:29:32.761Z,100.00
2022-12-29T23:31:59.664Z,100.00
2022-12-29T23:34:26.593Z,100.00
2022-12-29T23:36:53.476Z,100.00
2022-12-29T23:39:23.406Z,100.00
2022-12-29T23:41:51.582Z,100.00
2022-12-29T23:44:18.429Z,100.00
2022-12-29T23:46:45.334Z,100.00
2022-12-29T23:49:12.564Z,100.00
2022-12-29T23:51:39.780Z,100.00
2022-12-29T23:54:06.778Z,100.00
2022-12-29T23:56:33.832Z,100.00
2022-12-29T23:59:03.781Z,100.00
